Time;durP1;ratioP1;P1;durP2;ratioP2;P2;SDS_P1;SDS_P2;PMS_P1;PMS_P2;Temp;Humidity;BMP_temperature;BMP_pressure;BME280_temperature;BME280_humidity;BME280_pressure;Samples;Min_cycle;Max_cycle;Signal;HPM_P1;HPM_P2
2021/09/05 00:01:35;;;;;;;10.38;5.78;;;;;;;;;;4997601;28;20037;-43
2021/09/05 00:04:02;;;;;;;11.25;6.00;;;;;;;;;;4998149;28;20152;-43
2021/09/05 00:06:29;;;;;;;8.30;4.72;;;;;;;;;;4997751;28;20026;-44
2021/09/05 00:08:55;;;;;;;11.63;7.03;;;;;;;;;;4998349;28;20123;-43
2021/09/05 00:11:21;;;;;;;13.93;7.45;;;;;;;;;;4997952;28;21171;-43
2021/09/05 00:13:49;;;;;;;16.60;6.97;;;;;;;;;;4997834;28;20093;-43
2021/09/05 00:16:16;;;;;;;14.80;7.75;;;;;;;;;;4997467;28;20665;-43
2021/09/05 00:18:42;;;;;;;11.10;7.40;;;;;;;;;;4997783;28;20033;-43
2021/09/05 00:21:08;;;;;;;14.73;7.15;;;;;;;;;;4998187;28;20056;-43
2021/09/05 00:23:34;;;;;;;12.25;6.82;;;;;;;;;;4997168;28;20809;-43
2021/09/05 00:26:00;;;;;;;20.98;12.63;;;;;;;;;;4998378;28;20034;-43
2021/09/05 00:28:26;;;;;;;15.35;9.75;;;;;;;;;;4997261;28;20052;-44
2021/09/05 00:30:52;;;;;;;13.38;8.48;;;;;;;;;;4997516;28;20925;-43
2021/09/05 00:33:18;;;;;;;22.50;11.30;;;;;;;;;;4997985;28;20033;-44
2021/09/05 00:35:44;;;;;;;24.20;17.42;;;;;;;;;;4997303;28;20523;-44
2021/09/05 00:38:10;;;;;;;28.25;21.65;;;;;;;;;;4997744;28;20034;-43
2021/09/05 00:40:36;;;;;;;24.13;18.13;;;;;;;;;;4997167;28;20026;-43
2021/09/05 00:43:02;;;;;;;20.85;13.00;;;;;;;;;;4996513;28;20017;-43
2021/09/05 00:45:28;;;;;;;14.10;8.95;;;;;;;;;;4997208;28;20347;-43
2021/09/05 00:47:54;;;;;;;16.95;10.77;;;;;;;;;;4997162;28;20053;-43
2021/09/05 00:50:20;;;;;;;15.30;11.25;;;;;;;;;;4997399;28;20071;-44
2021/09/05 00:52:50;;;;;;;31.42;20.48;;;;;;;;;;4996606;28;20027;-43
2021/09/05 00:55:16;;;;;;;14.90;9.70;;;;;;;;;;4997297;28;20033;-43
2021/09/05 00:57:44;;;;;;;11.18;7.50;;;;;;;;;;4996712;28;20329;-43
2021/09/05 01:00:10;;;;;;;13.60;9.07;;;;;;;;;;4997470;28;20615;-43
2021/09/05 01:02:36;;;;;;;16.00;9.65;;;;;;;;;;4996580;28;20357;-43
2021/09/05 01:05:03;;;;;;;16.05;10.48;;;;;;;;;;4997211;28;20046;-44
2021/09/05 01:07:31;;;;;;;16.00;11.00;;;;;;;;;;4996563;28;20104;-43
2021/09/05 01:09:57;;;;;;;18.27;11.05;;;;;;;;;;4997433;28;20042;-43
2021/09/05 01:12:23;;;;;;;13.75;7.60;;;;;;;;;;4996514;28;20231;-43
2021/09/05 01:14:49;;;;;;;12.13;7.45;;;;;;;;;;4996894;28;20030;-43
2021/09/05 01:17:15;;;;;;;11.50;7.78;;;;;;;;;;4996773;28;20076;-44
2021/09/05 01:19:41;;;;;;;14.50;7.82;;;;;;;;;;4996861;28;20381;-43
2021/09/05 01:22:07;;;;;;;9.18;6.18;;;;;;;;;;4996834;28;20141;-44
2021/09/05 01:24:33;;;;;;;10.45;6.40;;;;;;;;;;4996377;28;20111;-43
2021/09/05 01:26:59;;;;;;;10.35;6.40;;;;;;;;;;4996722;28;20407;-43
2021/09/05 01:29:26;;;;;;;8.13;5.68;;;;;;;;;;4996449;28;20040;-43
2021/09/05 01:31:53;;;;;;;8.27;6.47;;;;;;;;;;4996419;28;20036;-43
2021/09/05 01:34:20;;;;;;;8.77;6.05;;;;;;;;;;4996411;28;20029;-43
2021/09/05 01:36:47;;;;;;;11.00;6.65;;;;;;;;;;4996632;28;20030;-42
2021/09/05 01:39:14;;;;;;;9.48;6.78;;;;;;;;;;4995226;28;20033;-42
2021/09/05 01:41:41;;;;;;;10.43;8.20;;;;;;;;;;4996326;28;20026;-43
2021/09/05 01:44:09;;;;;;;13.65;8.43;;;;;;;;;;4996408;28;20073;-43
2021/09/05 01:46:37;;;;;;;12.52;7.78;;;;;;;;;;4996094;28;20030;-43
2021/09/05 01:49:03;;;;;;;11.90;7.60;;;;;;;;;;4996377;28;20025;-43
2021/09/05 01:51:29;;;;;;;13.90;9.85;;;;;;;;;;4996399;28;20133;-43
2021/09/05 01:53:57;;;;;;;14.32;9.55;;;;;;;;;;4996444;28;20028;-43
2021/09/05 01:56:23;;;;;;;18.17;9.38;;;;;;;;;;4996093;28;20112;-43
2021/09/05 01:58:50;;;;;;;14.90;8.30;;;;;;;;;;4995964;28;20099;-43
2021/09/05 02:01:16;;;;;;;13.27;8.15;;;;;;;;;;4995375;28;20034;-43
2021/09/05 02:03:42;;;;;;;12.57;8.43;;;;;;;;;;4995987;28;20033;-43
2021/09/05 02:06:08;;;;;;;12.07;8.70;;;;;;;;;;4995595;28;20076;-43
2021/09/05 02:08:34;;;;;;;11.80;7.90;;;;;;;;;;4995838;28;20037;-43
2021/09/05 02:11:00;;;;;;;11.40;8.40;;;;;;;;;;4996198;28;20029;-43
2021/09/05 02:13:26;;;;;;;12.48;7.45;;;;;;;;;;4995574;28;20368;-43
2021/09/05 02:15:52;;;;;;;11.68;8.07;;;;;;;;;;4996095;28;20021;-43
2021/09/05 02:18:19;;;;;;;16.75;9.68;;;;;;;;;;4995125;28;20087;-43
2021/09/05 02:20:45;;;;;;;15.55;8.95;;;;;;;;;;4995971;28;20754;-42
2021/09/05 02:23:11;;;;;;;11.40;8.63;;;;;;;;;;4995278;28;20025;-43
2021/09/05 02:25:37;;;;;;;18.60;8.88;;;;;;;;;;4995594;28;20053;-43
2021/09/05 02:28:03;;;;;;;15.13;9.32;;;;;;;;;;4995677;28;20026;-43
2021/09/05 02:30:29;;;;;;;18.63;11.20;;;;;;;;;;4994991;28;20049;-43
2021/09/05 02:32:55;;;;;;;14.38;9.13;;;;;;;;;;4995246;28;20033;-43
2021/09/05 02:35:21;;;;;;;18.25;10.13;;;;;;;;;;4995267;28;20099;-43
2021/09/05 02:37:47;;;;;;;14.38;9.75;;;;;;;;;;4995407;28;20504;-43
2021/09/05 02:40:14;;;;;;;15.93;9.25;;;;;;;;;;4995223;28;20428;-43
2021/09/05 02:42:40;;;;;;;16.00;9.40;;;;;;;;;;5007320;28;21632;-43
2021/09/05 02:45:06;;;;;;;14.10;9.20;;;;;;;;;;4995327;28;20052;-43
2021/09/05 02:47:33;;;;;;;12.70;8.95;;;;;;;;;;4994884;28;20022;-43
2021/09/05 02:50:00;;;;;;;15.07;9.90;;;;;;;;;;4995349;28;20091;-43
2021/09/05 02:52:26;;;;;;;17.75;10.43;;;;;;;;;;4994899;28;20493;-45
2021/09/05 02:54:52;;;;;;;16.08;9.25;;;;;;;;;;5025176;28;20029;-43
2021/09/05 02:57:18;;;;;;;15.13;10.43;;;;;;;;;;5033580;28;20527;-42
2021/09/05 03:06:12;;;;;;;16.15;9.95;;;;;;;;;;5349673;23;21386;-43
2021/09/05 03:08:38;;;;;;;15.52;10.18;;;;;;;;;;4953965;29;20042;-44
2021/09/05 03:11:04;;;;;;;16.88;10.38;;;;;;;;;;4954112;29;20070;-44
2021/09/05 03:13:30;;;;;;;14.18;10.18;;;;;;;;;;4954656;29;20031;-44
2021/09/05 03:15:57;;;;;;;12.38;9.52;;;;;;;;;;4954163;29;20042;-45
2021/09/05 03:18:25;;;;;;;17.65;9.73;;;;;;;;;;4954631;29;20023;-44
2021/09/05 03:20:51;;;;;;;17.48;10.30;;;;;;;;;;4954200;29;20041;-44
2021/09/05 03:23:17;;;;;;;17.10;10.93;;;;;;;;;;4954147;29;20039;-44
2021/09/05 03:25:43;;;;;;;16.40;10.77;;;;;;;;;;4954045;29;20031;-44
2021/09/05 03:28:09;;;;;;;19.80;10.43;;;;;;;;;;4954291;29;20027;-44
2021/09/05 03:30:36;;;;;;;17.17;11.18;;;;;;;;;;4954397;29;20391;-44
2021/09/05 03:33:02;;;;;;;21.95;10.82;;;;;;;;;;4954025;29;20030;-43
2021/09/05 03:35:28;;;;;;;23.98;12.30;;;;;;;;;;4954094;29;20471;-44
2021/09/05 03:37:54;;;;;;;19.15;11.45;;;;;;;;;;4954052;29;20031;-44
2021/09/05 03:40:20;;;;;;;19.13;11.77;;;;;;;;;;4954265;29;20118;-43
2021/09/05 03:42:46;;;;;;;23.63;12.13;;;;;;;;;;4953885;29;20463;-43
2021/09/05 03:45:13;;;;;;;18.25;11.48;;;;;;;;;;4954340;29;20031;-43
2021/09/05 03:47:39;;;;;;;17.75;10.80;;;;;;;;;;4953942;29;20027;-44
2021/09/05 03:50:05;;;;;;;20.15;11.52;;;;;;;;;;4953974;29;20074;-43
2021/09/05 03:52:33;;;;;;;19.05;10.80;;;;;;;;;;4954284;29;20023;-43
2021/09/05 03:54:59;;;;;;;22.85;11.00;;;;;;;;;;4953753;29;20042;-43
2021/09/05 03:57:25;;;;;;;22.25;10.20;;;;;;;;;;4954235;29;20558;-43
2021/09/05 03:59:52;;;;;;;17.23;10.13;;;;;;;;;;4954042;29;20039;-43
2021/09/05 04:02:18;;;;;;;16.95;9.90;;;;;;;;;;4954142;29;20034;-43
2021/09/05 04:04:44;;;;;;;21.75;9.85;;;;;;;;;;4952498;29;20047;-43
2021/09/05 04:07:12;;;;;;;19.67;10.57;;;;;;;;;;4953746;29;20074;-43
2021/09/05 04:12:30;;;;;;;16.40;9.20;;;;;;;;;;4953815;29;20041;-43
2021/09/05 04:14:56;;;;;;;20.85;9.70;;;;;;;;;;4954006;29;20529;-43
2021/09/05 04:17:22;;;;;;;18.73;9.95;;;;;;;;;;4954707;28;20024;-43
2021/09/05 04:19:48;;;;;;;18.23;9.75;;;;;;;;;;4957337;29;20019;-44
2021/09/05 04:22:14;;;;;;;18.13;9.85;;;;;;;;;;4957161;29;20456;-43
2021/09/05 04:24:40;;;;;;;16.30;9.60;;;;;;;;;;4957425;29;20039;-43
2021/09/05 04:27:06;;;;;;;15.30;9.77;;;;;;;;;;4957330;29;20023;-43
2021/09/05 04:29:32;;;;;;;16.80;9.30;;;;;;;;;;4956977;29;20055;-44
2021/09/05 04:31:58;;;;;;;15.98;9.55;;;;;;;;;;4957225;29;20055;-43
2021/09/05 04:34:25;;;;;;;13.25;9.10;;;;;;;;;;4957287;29;20045;-44
2021/09/05 04:36:51;;;;;;;16.20;9.13;;;;;;;;;;4956918;29;20039;-44
2021/09/05 04:39:17;;;;;;;18.15;9.27;;;;;;;;;;4956902;29;20027;-44
2021/09/05 04:41:43;;;;;;;18.13;9.27;;;;;;;;;;4956999;29;20028;-44
2021/09/05 04:44:09;;;;;;;18.92;9.15;;;;;;;;;;4956735;29;20028;-43
2021/09/05 04:46:35;;;;;;;18.75;10.02;;;;;;;;;;4957110;29;20035;-43
2021/09/05 04:49:01;;;;;;;16.67;9.40;;;;;;;;;;4956569;29;20096;-43
2021/09/05 04:51:27;;;;;;;17.38;9.63;;;;;;;;;;4956753;29;20098;-44
2021/09/05 04:53:53;;;;;;;16.35;9.27;;;;;;;;;;4956756;29;20027;-44
2021/09/05 04:56:19;;;;;;;17.20;10.10;;;;;;;;;;4956429;29;20027;-44
2021/09/05 04:58:46;;;;;;;15.40;9.10;;;;;;;;;;4956673;29;20023;-43
2021/09/05 05:01:12;;;;;;;16.02;8.60;;;;;;;;;;4956507;29;20441;-43
2021/09/05 05:03:39;;;;;;;17.17;8.80;;;;;;;;;;4955456;29;20391;-43
2021/09/05 05:06:06;;;;;;;14.30;8.75;;;;;;;;;;4956038;29;20152;-44
2021/09/05 05:08:32;;;;;;;14.80;8.73;;;;;;;;;;4956500;29;20029;-44
2021/09/05 05:11:00;;;;;;;15.55;8.23;;;;;;;;;;4955533;29;20057;-43
2021/09/05 05:13:27;;;;;;;22.20;7.82;;;;;;;;;;4956620;29;20031;-44
2021/09/05 05:15:55;;;;;;;11.63;7.25;;;;;;;;;;4956518;29;20031;-44
2021/09/05 05:18:24;;;;;;;13.18;7.50;;;;;;;;;;4956304;29;20019;-43
2021/09/05 05:20:51;;;;;;;12.63;6.60;;;;;;;;;;4956435;29;20023;-44
2021/09/05 05:23:17;;;;;;;11.20;7.25;;;;;;;;;;4956142;29;20027;-44
2021/09/05 05:25:44;;;;;;;11.30;6.65;;;;;;;;;;4956461;29;20049;-44
2021/09/05 05:28:12;;;;;;;12.93;7.10;;;;;;;;;;4956072;29;20161;-43
2021/09/05 05:30:38;;;;;;;19.10;12.98;;;;;;;;;;4955550;28;20042;-43
2021/09/05 05:33:04;;;;;;;13.35;8.30;;;;;;;;;;4955936;29;20023;-43
2021/09/05 05:35:30;;;;;;;25.88;14.43;;;;;;;;;;4955948;29;20023;-44
2021/09/05 05:37:56;;;;;;;13.27;9.35;;;;;;;;;;4955978;29;20046;-44
2021/09/05 05:40:25;;;;;;;12.32;7.97;;;;;;;;;;4955772;29;20043;-43
2021/09/05 05:42:51;;;;;;;10.15;6.95;;;;;;;;;;4956085;29;20027;-44
2021/09/05 05:45:19;;;;;;;12.93;6.30;;;;;;;;;;4955781;29;20041;-42
2021/09/05 05:47:46;;;;;;;10.57;5.85;;;;;;;;;;4955984;29;20034;-44
2021/09/05 05:50:12;;;;;;;14.48;6.80;;;;;;;;;;4955478;29;20035;-44
2021/09/05 05:52:38;;;;;;;7.40;5.60;;;;;;;;;;4955939;29;20082;-43
2021/09/05 05:55:05;;;;;;;13.32;10.30;;;;;;;;;;4955553;29;20027;-43
2021/09/05 05:57:31;;;;;;;16.23;10.60;;;;;;;;;;4955514;29;20152;-44
2021/09/05 05:59:57;;;;;;;12.43;8.50;;;;;;;;;;4955658;29;20031;-44
2021/09/05 06:02:23;;;;;;;17.42;12.38;;;;;;;;;;4955329;29;20106;-43
2021/09/05 06:04:52;;;;;;;9.63;6.28;;;;;;;;;;4955448;29;20027;-43
2021/09/05 06:07:18;;;;;;;11.00;6.30;;;;;;;;;;4954810;29;20394;-43
2021/09/05 06:09:44;;;;;;;9.88;6.72;;;;;;;;;;4954103;29;20118;-43
2021/09/05 06:12:11;;;;;;;10.57;6.10;;;;;;;;;;4955096;29;20023;-43
2021/09/05 06:14:37;;;;;;;10.98;6.15;;;;;;;;;;4955418;29;20035;-44
2021/09/05 06:17:04;;;;;;;9.13;5.75;;;;;;;;;;4955162;29;20027;-43
2021/09/05 06:19:30;;;;;;;11.40;5.65;;;;;;;;;;4955423;29;20360;-43
2021/09/05 06:21:56;;;;;;;28.73;21.00;;;;;;;;;;4935107;29;20492;-43
2021/09/05 06:24:22;;;;;;;16.23;9.98;;;;;;;;;;4926545;29;20027;-43
2021/09/05 06:26:48;;;;;;;41.47;29.75;;;;;;;;;;4926488;28;20040;-43
2021/09/05 06:29:15;;;;;;;54.75;35.90;;;;;;;;;;4926821;29;20086;-43
2021/09/05 06:31:41;;;;;;;37.88;23.52;;;;;;;;;;4926742;29;20027;-43
2021/09/05 06:34:07;;;;;;;23.00;14.73;;;;;;;;;;4926755;29;20098;-43
2021/09/05 06:36:33;;;;;;;10.40;6.38;;;;;;;;;;4926449;29;20042;-43
2021/09/05 06:38:59;;;;;;;9.93;5.18;;;;;;;;;;4926608;29;20107;-43
2021/09/05 06:41:25;;;;;;;16.10;8.50;;;;;;;;;;4925413;28;20030;-43
2021/09/05 06:43:52;;;;;;;29.17;17.88;;;;;;;;;;4926590;29;20032;-43
2021/09/05 06:46:18;;;;;;;13.13;6.75;;;;;;;;;;4926314;29;20034;-43
2021/09/05 06:48:49;;;;;;;13.93;6.20;;;;;;;;;;4926109;29;20094;-43
2021/09/05 06:51:15;;;;;;;8.98;6.35;;;;;;;;;;4926329;29;20073;-43
2021/09/05 06:53:41;;;;;;;11.23;5.35;;;;;;;;;;4925894;29;20083;-43
2021/09/05 06:56:10;;;;;;;8.20;5.00;;;;;;;;;;4926097;29;20031;-42
2021/09/05 06:58:38;;;;;;;11.73;5.13;;;;;;;;;;4926177;29;20019;-42
2021/09/05 07:01:04;;;;;;;9.70;6.15;;;;;;;;;;4926216;29;20020;-43
2021/09/05 07:03:30;;;;;;;11.77;6.32;;;;;;;;;;4926181;29;20031;-43
2021/09/05 07:05:57;;;;;;;9.07;5.30;;;;;;;;;;4925631;29;20412;-44
2021/09/05 07:08:28;;;;;;;14.60;7.40;;;;;;;;;;4925578;29;20047;-42
2021/09/05 07:10:56;;;;;;;;;;;;;;;;;;4926390;29;20150;-43
2021/09/05 07:13:22;;;;;;;13.38;9.18;;;;;;;;;;4925398;28;19918;-43
2021/09/05 07:15:48;;;;;;;28.00;16.05;;;;;;;;;;4925959;29;20038;-44
2021/09/05 07:18:16;;;;;;;20.45;11.80;;;;;;;;;;4925874;28;20036;-44
2021/09/05 07:20:45;;;;;;;20.65;13.00;;;;;;;;;;4925642;29;20023;-42
2021/09/05 07:23:11;;;;;;;12.80;7.47;;;;;;;;;;4925865;29;20069;-42
2021/09/05 07:25:37;;;;;;;15.00;6.72;;;;;;;;;;4925794;29;20388;-45
2021/09/05 07:28:03;;;;;;;11.32;6.55;;;;;;;;;;4925842;29;20034;-45
2021/09/05 07:30:29;;;;;;;11.13;7.25;;;;;;;;;;4925821;29;20040;-43
2021/09/05 07:32:55;;;;;;;35.97;22.13;;;;;;;;;;4925913;29;20118;-43
2021/09/05 07:35:23;;;;;;;18.35;10.55;;;;;;;;;;4925780;29;20094;-42
2021/09/05 07:37:50;;;;;;;17.88;8.57;;;;;;;;;;4925398;29;20076;-43
2021/09/05 07:40:18;;;;;;;22.45;12.75;;;;;;;;;;4925601;29;20030;-43
2021/09/05 07:42:44;;;;;;;20.45;13.32;;;;;;;;;;4925867;29;20138;-43
2021/09/05 07:45:11;;;;;;;11.10;5.65;;;;;;;;;;4925797;29;20095;-43
2021/09/05 07:47:37;;;;;;;9.23;4.47;;;;;;;;;;4925639;29;21194;-43
2021/09/05 07:50:04;;;;;;;9.55;6.43;;;;;;;;;;4925437;29;20035;-44
2021/09/05 07:52:30;;;;;;;7.25;5.00;;;;;;;;;;4926877;28;20345;-44
2021/09/05 07:54:56;;;;;;;20.33;11.32;;;;;;;;;;4929108;29;20203;-44
2021/09/05 07:57:22;;;;;;;11.07;6.43;;;;;;;;;;4929620;28;20028;-43
2021/09/05 07:59:48;;;;;;;5.30;4.35;;;;;;;;;;4929729;29;20026;-44
2021/09/05 08:02:14;;;;;;;7.28;4.25;;;;;;;;;;4929115;29;20078;-42
2021/09/05 08:04:40;;;;;;;5.53;4.15;;;;;;;;;;4929589;29;20023;-42
2021/09/05 08:07:06;;;;;;;7.35;3.97;;;;;;;;;;4928095;28;20087;-44
2021/09/05 08:09:35;;;;;;;10.88;6.57;;;;;;;;;;4929127;29;20027;-42
2021/09/05 08:12:01;;;;;;;12.68;5.07;;;;;;;;;;4928791;29;20085;-41
2021/09/05 08:14:27;;;;;;;9.85;4.18;;;;;;;;;;4929030;29;20027;-41
2021/09/05 08:16:53;;;;;;;46.40;27.60;;;;;;;;;;4927337;29;20752;-43
2021/09/05 08:19:19;;;;;;;32.25;20.38;;;;;;;;;;4928681;29;20086;-42
2021/09/05 08:21:45;;;;;;;264.38;144.40;;;;;;;;;;4928927;29;20059;-44
2021/09/05 08:24:12;;;;;;;32.63;16.85;;;;;;;;;;4928546;29;20063;-42
2021/09/05 08:26:38;;;;;;;21.48;10.25;;;;;;;;;;4929248;29;20443;-43
2021/09/05 08:29:06;;;;;;;13.90;8.88;;;;;;;;;;4928978;29;20030;-42
2021/09/05 08:31:32;;;;;;;53.17;26.27;;;;;;;;;;4928867;29;20823;-43
2021/09/05 08:33:58;;;;;;;50.30;31.30;;;;;;;;;;4929210;29;20031;-43
2021/09/05 08:36:24;;;;;;;72.30;50.85;;;;;;;;;;4928628;29;20035;-42
2021/09/05 08:38:50;;;;;;;110.82;74.70;;;;;;;;;;4928208;29;20059;-43
2021/09/05 08:41:16;;;;;;;47.78;30.77;;;;;;;;;;4928451;29;20020;-42
2021/09/05 08:43:44;;;;;;;48.45;27.17;;;;;;;;;;4928520;29;20043;-42
2021/09/05 08:46:10;;;;;;;31.63;21.00;;;;;;;;;;4928456;29;20060;-42
2021/09/05 08:48:36;;;;;;;102.65;54.40;;;;;;;;;;4928632;29;20035;-44
2021/09/05 08:51:02;;;;;;;127.13;77.55;;;;;;;;;;4928143;29;20040;-43
2021/09/05 08:53:29;;;;;;;12.20;10.65;;;;;;;;;;4928258;29;20032;-42
2021/09/05 08:55:55;;;;;;;4.95;3.40;;;;;;;;;;4928446;29;20043;-42
2021/09/05 08:58:21;;;;;;;8.45;4.15;;;;;;;;;;4927836;29;20043;-44
2021/09/05 09:00:50;;;;;;;32.72;13.70;;;;;;;;;;4928024;29;20043;-44
2021/09/05 09:03:20;;;;;;;5.28;3.05;;;;;;;;;;4928092;28;20082;-44
2021/09/05 09:05:49;;;;;;;4.45;3.42;;;;;;;;;;4927417;29;20184;-43
2021/09/05 09:08:16;;;;;;;4.80;2.75;;;;;;;;;;4927725;29;20130;-44
2021/09/05 09:10:49;;;;;;;9.43;3.42;;;;;;;;;;4927892;28;20039;-44
2021/09/05 09:13:29;;;;;;;4.35;2.90;;;;;;;;;;4927845;29;20026;-45
2021/09/05 09:15:56;;;;;;;3.65;2.72;;;;;;;;;;4928139;29;20027;-43
2021/09/05 09:18:24;;;;;;;5.03;2.67;;;;;;;;;;4927810;29;20027;-42
2021/09/05 09:20:50;;;;;;;3.33;2.70;;;;;;;;;;4927697;29;20031;-43
2021/09/05 09:23:31;;;;;;;3.15;2.33;;;;;;;;;;4927733;29;20755;-42
2021/09/05 09:25:57;;;;;;;6.60;2.90;;;;;;;;;;4927895;29;20023;-44
2021/09/05 09:28:25;;;;;;;4.50;3.28;;;;;;;;;;4927653;29;20062;-42
2021/09/05 09:30:53;;;;;;;5.55;2.80;;;;;;;;;;4927583;29;20066;-46
2021/09/05 09:33:20;;;;;;;3.70;2.45;;;;;;;;;;4927351;29;20034;-43
2021/09/05 09:35:47;;;;;;;4.97;2.83;;;;;;;;;;4927705;29;20042;-43
2021/09/05 09:38:14;;;;;;;4.30;2.92;;;;;;;;;;4927663;29;21006;-43
2021/09/05 09:40:40;;;;;;;4.03;2.38;;;;;;;;;;4927309;29;20039;-43
2021/09/05 09:43:19;;;;;;;4.57;2.45;;;;;;;;;;4927470;29;20067;-43
2021/09/05 09:45:46;;;;;;;7.47;2.97;;;;;;;;;;4927546;29;20027;-41
2021/09/05 09:48:14;;;;;;;5.18;2.88;;;;;;;;;;4927516;29;20039;-42
2021/09/05 09:50:43;;;;;;;4.60;2.50;;;;;;;;;;4927443;29;20061;-41
2021/09/05 09:53:11;;;;;;;4.40;2.90;;;;;;;;;;4927229;29;20118;-44
2021/09/05 09:55:39;;;;;;;5.50;3.05;;;;;;;;;;4927582;28;20522;-43
2021/09/05 09:58:06;;;;;;;4.38;2.85;;;;;;;;;;4927094;29;20728;-43
2021/09/05 10:00:35;;;;;;;4.95;3.58;;;;;;;;;;4927109;29;20611;-42
2021/09/05 10:03:01;;;;;;;5.65;3.30;;;;;;;;;;4927276;29;20033;-42
2021/09/05 10:05:28;;;;;;;3.55;3.03;;;;;;;;;;4916375;28;20857;-42
2021/09/05 10:07:56;;;;;;;4.68;3.00;;;;;;;;;;4926374;29;20071;-41
2021/09/05 10:10:23;;;;;;;6.57;3.40;;;;;;;;;;4926911;28;20582;-41
2021/09/05 10:12:50;;;;;;;11.55;6.43;;;;;;;;;;4927320;29;20031;-43
2021/09/05 10:15:18;;;;;;;12.68;7.50;;;;;;;;;;4926417;29;20024;-43
2021/09/05 10:17:45;;;;;;;10.20;5.15;;;;;;;;;;4926895;29;20035;-43
2021/09/05 10:20:11;;;;;;;43.35;27.90;;;;;;;;;;4926511;29;20035;-42
2021/09/05 10:22:40;;;;;;;31.52;21.08;;;;;;;;;;4926469;29;20024;-44
2021/09/05 10:25:06;;;;;;;59.97;38.08;;;;;;;;;;4926969;29;20469;-43
2021/09/05 10:27:34;;;;;;;42.30;22.05;;;;;;;;;;4926730;29;20126;-43
2021/09/05 10:30:08;;;;;;;53.70;29.45;;;;;;;;;;4926448;29;20487;-43
2021/09/05 10:32:49;;;;;;;9.52;5.03;;;;;;;;;;4926490;29;20870;-44
2021/09/05 10:35:34;;;;;;;9.15;4.28;;;;;;;;;;4926432;29;20045;-43
2021/09/05 10:38:14;;;;;;;7.55;5.15;;;;;;;;;;4926293;29;20779;-43
2021/09/05 10:40:41;;;;;;;5.82;3.42;;;;;;;;;;4926297;29;21053;-43
2021/09/05 10:43:07;;;;;;;9.85;6.30;;;;;;;;;;4926910;29;20031;-43
2021/09/05 10:45:34;;;;;;;43.95;28.75;;;;;;;;;;4926361;29;20086;-44
2021/09/05 10:48:00;;;;;;;10.23;6.05;;;;;;;;;;4926946;29;20028;-43
2021/09/05 10:50:40;;;;;;;10.68;6.60;;;;;;;;;;4926488;29;20043;-43
2021/09/05 10:53:16;;;;;;;4.93;3.42;;;;;;;;;;4926292;29;20168;-42
2021/09/05 10:56:01;;;;;;;33.95;29.50;;;;;;;;;;4926090;29;20315;-42
2021/09/05 10:58:40;;;;;;;5.32;3.78;;;;;;;;;;4926345;29;20120;-45
2021/09/05 11:01:19;;;;;;;40.03;21.98;;;;;;;;;;4926062;29;20030;-44
2021/09/05 11:04:04;;;;;;;18.80;10.63;;;;;;;;;;4926044;29;20118;-44
2021/09/05 11:06:33;;;;;;;9.05;6.38;;;;;;;;;;4925766;29;20071;-44
2021/09/05 11:09:35;;;;;;;4.65;3.47;;;;;;;;;;4926182;29;20785;-44
2021/09/05 11:12:04;;;;;;;4.97;4.15;;;;;;;;;;4886428;29;20039;-44
2021/09/05 11:14:40;;;;;;;4.03;3.05;;;;;;;;;;4886778;29;20060;-44
2021/09/05 11:17:09;;;;;;;3.72;2.97;;;;;;;;;;4891841;29;20024;-44
2021/09/05 11:19:49;;;;;;;6.25;4.00;;;;;;;;;;4895806;29;20040;-44
2021/09/05 11:22:20;;;;;;;9.07;5.32;;;;;;;;;;4896031;29;20044;-44
2021/09/05 11:24:46;;;;;;;6.00;4.20;;;;;;;;;;4896131;29;20193;-44
2021/09/05 11:27:14;;;;;;;6.40;3.67;;;;;;;;;;4895490;29;20135;-44
2021/09/05 11:29:40;;;;;;;4.63;2.72;;;;;;;;;;4897051;29;21290;-44
2021/09/05 11:32:08;;;;;;;4.68;3.10;;;;;;;;;;4897329;29;20044;-44
2021/09/05 11:34:39;;;;;;;7.32;3.10;;;;;;;;;;4897622;29;20088;-43
2021/09/05 11:37:05;;;;;;;;;;;;;;;;;;4897784;29;20187;-42
2021/09/05 11:39:32;;;;;;;8.48;3.80;;;;;;;;;;4897381;29;20074;-44
2021/09/05 11:41:59;;;;;;;4.90;4.00;;;;;;;;;;4897766;29;20528;-44
2021/09/05 11:44:28;;;;;;;13.75;9.43;;;;;;;;;;4897229;29;20036;-44
2021/09/05 11:47:07;;;;;;;10.95;6.43;;;;;;;;;;4920546;29;20046;-42
2021/09/05 11:49:35;;;;;;;34.45;20.52;;;;;;;;;;4925188;29;20042;-44
2021/09/05 11:52:01;;;;;;;37.17;25.38;;;;;;;;;;4924972;29;20035;-43
2021/09/05 11:54:27;;;;;;;54.65;33.17;;;;;;;;;;4925234;29;20039;-43
2021/09/05 11:56:53;;;;;;;23.27;14.55;;;;;;;;;;4925183;29;20130;-43
2021/09/05 11:59:19;;;;;;;46.25;28.33;;;;;;;;;;4925296;29;20055;-43
2021/09/05 12:01:49;;;;;;;29.27;18.95;;;;;;;;;;4925352;29;20031;-43
2021/09/05 12:04:16;;;;;;;47.38;27.17;;;;;;;;;;4924896;29;20031;-44
2021/09/05 12:06:42;;;;;;;37.78;20.52;;;;;;;;;;4924887;29;20059;-45
2021/09/05 12:09:09;;;;;;;56.85;26.55;;;;;;;;;;4925179;29;20027;-44
2021/09/05 12:11:54;;;;;;;118.75;55.15;;;;;;;;;;4925242;29;20035;-46
2021/09/05 12:14:27;;;;;;;42.72;25.63;;;;;;;;;;4925521;29;20823;-45
2021/09/05 12:16:53;;;;;;;73.20;43.03;;;;;;;;;;4925265;29;20027;-45
2021/09/05 12:19:19;;;;;;;38.80;22.67;;;;;;;;;;4924884;29;20178;-44
2021/09/05 12:21:45;;;;;;;15.13;6.10;;;;;;;;;;4925904;29;20186;-44
2021/09/05 12:24:15;;;;;;;6.60;3.15;;;;;;;;;;4925120;29;20027;-43
2021/09/05 12:26:42;;;;;;;163.77;98.50;;;;;;;;;;4924881;29;20877;-43
2021/09/05 12:29:09;;;;;;;122.45;56.30;;;;;;;;;;4925080;29;20031;-42
2021/09/05 12:31:57;;;;;;;26.00;15.23;;;;;;;;;;4924802;29;20035;-44
2021/09/05 12:34:45;;;;;;;18.23;10.43;;;;;;;;;;4926362;29;20070;-42
2021/09/05 12:37:19;;;;;;;10.98;6.15;;;;;;;;;;4924482;29;20779;-44
2021/09/05 12:39:46;;;;;;;49.10;24.17;;;;;;;;;;4926171;28;20027;-45
2021/09/05 12:42:13;;;;;;;46.20;32.15;;;;;;;;;;4928317;29;20028;-41
2021/09/05 12:44:40;;;;;;;74.53;42.70;;;;;;;;;;4928440;29;20107;-42
2021/09/05 12:47:06;;;;;;;33.63;21.20;;;;;;;;;;4929394;29;20082;-42
2021/09/05 12:49:39;;;;;;;88.22;55.03;;;;;;;;;;4928270;29;20020;-46
2021/09/05 12:52:06;;;;;;;11.48;7.85;;;;;;;;;;4928102;29;20609;-42
2021/09/05 12:54:39;;;;;;;17.92;6.22;;;;;;;;;;4936608;29;20439;-43
2021/09/05 12:57:06;;;;;;;10.07;5.05;;;;;;;;;;4927865;29;20035;-45
2021/09/05 12:59:32;;;;;;;9.25;4.65;;;;;;;;;;4927851;29;20094;-44
2021/09/05 13:02:01;;;;;;;6.43;3.53;;;;;;;;;;4927728;29;20028;-44
2021/09/05 13:04:29;;;;;;;10.20;3.55;;;;;;;;;;4928228;29;20039;-44
2021/09/05 13:06:55;;;;;;;4.45;3.20;;;;;;;;;;4927284;29;20048;-44
2021/09/05 13:09:21;;;;;;;6.85;3.45;;;;;;;;;;4927602;29;20346;-44
2021/09/05 13:11:48;;;;;;;7.07;3.10;;;;;;;;;;4927367;29;20066;-44
2021/09/05 13:14:14;;;;;;;7.43;3.20;;;;;;;;;;4928426;29;20031;-44
2021/09/05 13:16:40;;;;;;;9.07;4.70;;;;;;;;;;4928513;29;20480;-44
2021/09/05 13:19:06;;;;;;;8.60;3.65;;;;;;;;;;4930598;29;20102;-44
2021/09/05 13:21:33;;;;;;;6.43;3.00;;;;;;;;;;4927832;29;20034;-45
2021/09/05 13:23:59;;;;;;;4.95;3.50;;;;;;;;;;4927844;29;20134;-43
2021/09/05 13:26:25;;;;;;;4.75;3.35;;;;;;;;;;4927480;29;20443;-44
2021/09/05 13:28:52;;;;;;;5.38;3.72;;;;;;;;;;4927303;29;20019;-45
2021/09/05 13:31:19;;;;;;;83.70;58.50;;;;;;;;;;4927499;29;20036;-47
2021/09/05 13:33:45;;;;;;;56.22;30.67;;;;;;;;;;4927177;29;20055;-43
2021/09/05 13:36:11;;;;;;;23.25;13.13;;;;;;;;;;4926982;29;20883;-43
2021/09/05 13:38:37;;;;;;;74.95;50.25;;;;;;;;;;4927173;29;20034;-44
2021/09/05 13:41:03;;;;;;;14.32;8.05;;;;;;;;;;4928033;29;20031;-43
2021/09/05 13:43:30;;;;;;;3.00;2.70;;;;;;;;;;4927152;29;20539;-42
2021/09/05 13:45:56;;;;;;;20.02;14.82;;;;;;;;;;4927924;29;20681;-44
2021/09/05 13:48:22;;;;;;;20.95;13.27;;;;;;;;;;4927135;29;20071;-42
2021/09/05 13:50:49;;;;;;;13.40;8.07;;;;;;;;;;4926348;29;20346;-42
2021/09/05 13:53:15;;;;;;;15.20;8.45;;;;;;;;;;4927837;29;20034;-42
2021/09/05 13:55:45;;;;;;;4.25;3.20;;;;;;;;;;4927106;29;20551;-41
2021/09/05 13:58:11;;;;;;;15.88;9.13;;;;;;;;;;4927927;29;20038;-44
2021/09/05 14:00:40;;;;;;;18.10;9.73;;;;;;;;;;4926837;29;20803;-44
2021/09/05 14:03:06;;;;;;;14.20;9.82;;;;;;;;;;4926721;29;20046;-42
2021/09/05 14:05:32;;;;;;;16.58;10.30;;;;;;;;;;4926887;29;20035;-44
2021/09/05 14:07:58;;;;;;;266.13;204.93;;;;;;;;;;4926138;29;20047;-44
2021/09/05 14:10:24;;;;;;;51.08;32.78;;;;;;;;;;4926360;29;20028;-45
2021/09/05 14:12:50;;;;;;;8.10;5.80;;;;;;;;;;4926765;29;20031;-45
2021/09/05 14:15:19;;;;;;;18.08;11.63;;;;;;;;;;4926728;29;20383;-42
2021/09/05 14:17:45;;;;;;;42.95;24.83;;;;;;;;;;4926580;29;20069;-42
2021/09/05 14:20:13;;;;;;;10.50;6.05;;;;;;;;;;4926472;29;20045;-43
2021/09/05 14:22:39;;;;;;;29.95;19.20;;;;;;;;;;4926588;29;20285;-43
2021/09/05 14:25:06;;;;;;;5.22;4.20;;;;;;;;;;4955882;29;20059;-44
2021/09/05 14:27:36;;;;;;;6.78;3.65;;;;;;;;;;4955876;28;20031;-42
2021/09/05 14:30:08;;;;;;;5.63;4.32;;;;;;;;;;4955974;28;20059;-43
2021/09/05 14:49:10;;;;;;;5.50;3.20;;;;;;;;;;4841188;29;20045;-43
2021/09/05 14:56:41;;;;;;;5.95;3.55;;;;;;;;;;4840867;29;20042;-42
2021/09/05 15:01:41;;;;;;;31.00;21.70;;;;;;;;;;4840363;29;20159;-44
2021/09/05 15:12:06;;;;;;;8.18;4.30;;;;;;;;;;4840600;29;20049;-45